»·PEaware :: UAL1928 KGPI-KPDX

UAL1928 :: KGPI-KPDX

FLIGHT INFORMATION

Flight Status: Arrived
Operator:
United Airlines
More flights by this operator :: More flights under this callsign
Pilot: Chris C. (10181)
Aircraft: BOEING 737-200
(B732)
More flights by this aircraft type
Origin: KGPI Glacier Park Intl
United States
Destination: KPDX Portland Intl
United States
More flights between these airports :: More routes between these airports
Route: SKOTT2 SKOTT V231 CHARL V120 MLP J136 BTG
File this flight plan on PilotEdge
Remarks:
Altitude:
(Current/Filed)
28,000ft
Speed:
(Current/Filed)
480kts
Departed: 12-Nov-19 10:18 AM
Arrived: 12-Nov-19 11:44 AM
Distance/Time
Traveled:
378nm/1:26
Distance/Time
To Go:
Arrived

Flight Plot

Page will automatically refresh every two minutes.

Flight plan parsing failed; only flown route is shown


Map Options




Map Legend


Flown Route
Filed Route
Departure Airport
Arrival Airport
Navaid (VOR, NDB)
Fix

Horizontal Profiles

Position Reports

Time Latitude Longitude Heading Altitude Ground
Speed
12-Nov-19 09:42 48.308050 -114.253129 125 2973ft 0kts
12-Nov-19 09:43 48.308050 -114.253129 125 2973ft 0kts
12-Nov-19 09:44 48.308050 -114.253129 125 2973ft 0kts
12-Nov-19 09:45 48.308050 -114.253129 125 2973ft 0kts
12-Nov-19 09:46 48.308050 -114.253129 125 2973ft 0kts
12-Nov-19 09:47 48.308050 -114.253129 125 2973ft 0kts
12-Nov-19 09:48 48.308050 -114.253129 125 2973ft 0kts
12-Nov-19 09:49 48.308050 -114.253129 125 2973ft 0kts
12-Nov-19 09:50 48.308050 -114.253129 125 2973ft 0kts
12-Nov-19 09:51 48.308050 -114.253129 125 2973ft 0kts
12-Nov-19 09:52 48.308050 -114.253129 125 2973ft 0kts
12-Nov-19 09:53 48.308050 -114.253129 125 2973ft 0kts
12-Nov-19 09:54 48.308050 -114.253129 125 2973ft 0kts
12-Nov-19 09:55 48.308050 -114.253129 125 2973ft 0kts
12-Nov-19 09:56 48.308050 -114.253129 125 2973ft 0kts
12-Nov-19 09:57 48.308050 -114.253129 125 2973ft 0kts
12-Nov-19 09:58 48.308050 -114.253129 125 2973ft 0kts
12-Nov-19 09:59 48.308050 -114.253129 125 2973ft 0kts
12-Nov-19 10:00 48.308050 -114.253129 125 2973ft 0kts
12-Nov-19 10:01 48.308050 -114.253129 125 2973ft 0kts
12-Nov-19 10:02 48.308050 -114.253129 125 2973ft 0kts
12-Nov-19 10:03 48.308050 -114.253129 125 2973ft 0kts
12-Nov-19 10:04 48.308050 -114.253129 125 2973ft 0kts
12-Nov-19 10:05 48.308050 -114.253129 125 2973ft 0kts
12-Nov-19 10:06 48.308276 -114.253601 138 2973ft 2kts
12-Nov-19 10:07 48.308792 -114.253673 212 2973ft 0kts
12-Nov-19 10:08 48.308844 -114.253616 216 2973ft 0kts
12-Nov-19 10:09 48.308844 -114.253616 216 2973ft 0kts
12-Nov-19 10:10 48.308844 -114.253616 216 2973ft 0kts
12-Nov-19 10:11 48.308445 -114.254049 215 2973ft 7kts
12-Nov-19 10:12 48.307913 -114.256112 217 2973ft 11kts
12-Nov-19 10:13 48.304728 -114.259439 214 2971ft 14kts
12-Nov-19 10:14 48.300713 -114.263585 215 2968ft 19kts
12-Nov-19 10:16 48.298441 -114.266244 264 2968ft 0kts
12-Nov-19 10:17 48.299095 -114.267355 28 2968ft 7kts
12-Nov-19 10:18 48.320908 -114.244074 37 3690ft 144kts
12-Nov-19 10:19 48.353241 -114.252353 269 5320ft 165kts
12-Nov-19 10:20 48.315461 -114.256460 138 6921ft 197kts
12-Nov-19 10:21 48.268006 -114.207437 150 8659ft 223kts
12-Nov-19 10:22 48.207150 -114.175032 171 10589ft 249kts
12-Nov-19 10:23 48.137720 -114.165626 190 12737ft 274kts
12-Nov-19 10:24 48.050360 -114.144872 176 14202ft 342kts
12-Nov-19 10:25 47.956952 -114.130157 185 16752ft 342kts
12-Nov-19 10:26 47.859499 -114.125162 186 18857ft 355kts
12-Nov-19 10:27 47.758716 -114.119798 186 20657ft 368kts
12-Nov-19 10:28 47.653743 -114.112085 184 22133ft 385kts
12-Nov-19 10:29 47.545017 -114.100630 184 23628ft 394kts
12-Nov-19 10:30 47.443626 -114.127713 234 24779ft 357kts
12-Nov-19 10:31 47.429660 -114.264941 274 25939ft 345kts
12-Nov-19 10:32 47.438473 -114.408173 276 26999ft 351kts
12-Nov-19 10:33 47.449884 -114.553494 278 27932ft 356kts
12-Nov-19 10:34 47.461844 -114.701004 273 28203ft 364kts
12-Nov-19 10:34 47.465042 -114.827789 273 28189ft 369kts
12-Nov-19 10:36 47.471763 -115.006165 270 28171ft 372kts
12-Nov-19 10:37 47.472316 -115.160281 267 28173ft 373kts
12-Nov-19 10:37 47.470487 -115.288952 267 28172ft 373kts
12-Nov-19 10:38 47.468583 -115.442797 267 28173ft 373kts
12-Nov-19 10:40 47.465485 -115.623007 265 28138ft 373kts
12-Nov-19 10:40 47.460654 -115.751607 270 28126ft 375kts
12-Nov-19 10:41 47.473475 -115.906237 276 28128ft 378kts
12-Nov-19 10:42 47.488393 -116.061071 273 28128ft 377kts
12-Nov-19 10:43 47.495987 -116.216078 271 28128ft 376kts
12-Nov-19 10:44 47.501074 -116.371294 271 28127ft 376kts
12-Nov-19 10:45 47.506246 -116.526827 271 28127ft 376kts
12-Nov-19 10:46 47.512665 -116.681555 271 28130ft 376kts
12-Nov-19 10:47 47.519973 -116.837003 271 28127ft 377kts
12-Nov-19 10:48 47.527538 -116.992605 271 28132ft 377kts
12-Nov-19 10:49 47.536192 -117.148300 272 28137ft 378kts
12-Nov-19 10:50 47.545494 -117.303721 272 28136ft 378kts
12-Nov-19 10:51 47.555018 -117.459670 272 28122ft 378kts
12-Nov-19 10:52 47.581636 -117.612983 283 28098ft 384kts
12-Nov-19 10:53 47.568730 -117.761661 250 28103ft 374kts
12-Nov-19 10:54 47.531060 -117.906755 244 28095ft 377kts
12-Nov-19 10:55 47.456740 -118.019819 229 28100ft 383kts
12-Nov-19 10:56 47.382657 -118.133827 236 28100ft 379kts
12-Nov-19 10:57 47.324468 -118.264230 241 28100ft 378kts
12-Nov-19 10:58 47.271360 -118.398164 242 28122ft 376kts
12-Nov-19 10:59 47.220482 -118.533443 243 28165ft 375kts
12-Nov-19 11:00 47.171665 -118.667393 244 28176ft 374kts
12-Nov-19 11:01 47.122900 -118.803955 244 28173ft 376kts
12-Nov-19 11:02 47.073552 -118.939933 242 28174ft 377kts
12-Nov-19 11:03 47.020914 -119.074416 242 28173ft 377kts
12-Nov-19 11:04 46.966887 -119.207264 240 28173ft 378kts
12-Nov-19 11:05 46.910388 -119.337745 240 28173ft 378kts
12-Nov-19 11:06 46.855201 -119.466287 243 28179ft 377kts
12-Nov-19 11:07 46.806446 -119.602302 248 28187ft 376kts
12-Nov-19 11:08 46.769076 -119.745470 255 28195ft 375kts
12-Nov-19 11:09 46.741841 -119.893051 255 28174ft 377kts
12-Nov-19 11:10 46.706725 -120.038228 247 28152ft 380kts
12-Nov-19 11:11 46.660848 -120.171312 243 26929ft 358kts
12-Nov-19 11:12 46.616180 -120.299511 248 24473ft 347kts
12-Nov-19 11:13 46.577162 -120.429255 242 24151ft 359kts
12-Nov-19 11:14 46.527641 -120.558686 244 24157ft 371kts
12-Nov-19 11:15 46.483210 -120.677107 243 24159ft 380kts
12-Nov-19 11:16 46.429304 -120.817840 244 24156ft 388kts
12-Nov-19 11:17 46.380731 -120.959330 245 24155ft 393kts
12-Nov-19 11:18 46.331695 -121.096035 244 23550ft 361kts
12-Nov-19 11:19 46.284504 -121.222755 241 20842ft 355kts
12-Nov-19 11:20 46.232813 -121.342231 240 18434ft 342kts
12-Nov-19 11:21 46.182675 -121.454724 240 16304ft 325kts
12-Nov-19 11:22 46.138328 -121.554351 242 16207ft 294kts
12-Nov-19 11:23 46.097533 -121.665897 244 16218ft 332kts
12-Nov-19 11:24 46.053520 -121.790840 244 16205ft 361kts
12-Nov-19 11:25 46.007305 -121.922376 244 16173ft 348kts
12-Nov-19 11:26 45.965271 -122.041213 244 14507ft 320kts
12-Nov-19 11:27 45.926845 -122.149672 245 12930ft 300kts
12-Nov-19 11:28 45.889484 -122.255320 242 10947ft 295kts
12-Nov-19 11:29 45.870292 -122.358377 264 9399ft 259kts
12-Nov-19 11:30 45.865746 -122.462266 265 7381ft 255kts
12-Nov-19 11:31 45.854102 -122.558669 265 5861ft 240kts
12-Nov-19 11:32 45.843891 -122.652874 264 4431ft 239kts
12-Nov-19 11:33 45.834926 -122.744153 264 3943ft 221kts
12-Nov-19 11:34 45.826313 -122.832093 264 3959ft 227kts
12-Nov-19 11:35 45.812888 -122.922776 230 4005ft 245kts
12-Nov-19 11:36 45.750476 -122.910811 145 3774ft 241kts
12-Nov-19 11:37 45.697383 -122.854509 128 3461ft 238kts
12-Nov-19 11:38 45.665127 -122.777756 112 3149ft 197kts
12-Nov-19 11:39 45.641410 -122.713855 126 1754ft 157kts
12-Nov-19 11:40 45.620630 -122.665009 113 1128ft 127kts
12-Nov-19 11:41 45.604262 -122.620183 118 439ft 125kts
12-Nov-19 11:42 45.589203 -122.581254 118 36ft 44kts
12-Nov-19 11:43 45.586206 -122.576460 207 33ft 0kts
12-Nov-19 11:44 45.586098 -122.576543 207 33ft 0kts
12-Nov-19 11:45 45.588277 -122.582177 298 34ft 22kts
12-Nov-19 11:46 45.590563 -122.590236 301 36ft 22kts
12-Nov-19 11:47 45.593047 -122.596917 266 35ft 17kts
12-Nov-19 11:48 45.590377 -122.596762 112 33ft 8kts
12-Nov-19 11:49 45.590724 -122.595457 44 34ft 0kts

Navigation Log

Ident Type
Flight plan parsing failed, navigation log unavailable